createdAt,value
2018-09-14T00:00:25.392Z,199.58
2018-09-14T00:01:00.949Z,159.89
2018-09-14T00:01:36.487Z,255.00
2018-09-14T00:02:11.812Z,248.17
2018-09-14T00:02:47.216Z,210.00
2018-09-14T00:03:22.439Z,250.31
2018-09-14T00:03:57.811Z,300.00
2018-09-14T00:04:33.143Z,274.90
2018-09-14T00:05:08.542Z,81.11
2018-09-14T00:05:44.041Z,255.00
2018-09-14T00:06:19.342Z,255.00
2018-09-14T00:06:54.518Z,255.00
2018-09-14T00:07:29.825Z,255.00
2018-09-14T00:08:05.096Z,226.82
2018-09-14T00:08:40.305Z,255.00
2018-09-14T00:09:15.573Z,255.00
2018-09-14T00:09:50.960Z,255.00
2018-09-14T00:10:26.235Z,236.25
2018-09-14T00:11:01.746Z,210.00
2018-09-14T00:11:37.230Z,210.00
2018-09-14T00:12:12.635Z,301.76
2018-09-14T00:12:47.732Z,30.00
2018-09-14T00:13:22.828Z,194.95
2018-09-14T00:13:58.090Z,189.59
2018-09-14T00:14:33.296Z,125.42
2018-09-14T00:15:08.617Z,173.47
2018-09-14T00:15:43.826Z,205.31
2018-09-14T00:16:19.176Z,345.00
2018-09-14T00:16:54.487Z,172.41
2018-09-14T00:17:29.656Z,165.00
2018-09-14T00:18:04.740Z,174.15
2018-09-14T00:18:40.318Z,169.03
2018-09-14T00:19:15.736Z,235.96
2018-09-14T00:19:51.333Z,230.55
2018-09-14T00:20:26.494Z,201.23
2018-09-14T00:21:02.058Z,301.32
2018-09-14T00:21:37.470Z,300.00
2018-09-14T00:22:12.638Z,222.71
2018-09-14T00:22:48.044Z,210.00
2018-09-14T00:23:23.213Z,210.00
2018-09-14T00:23:58.310Z,210.00
2018-09-14T00:24:33.720Z,214.03
2018-09-14T00:25:09.308Z,240.18
2018-09-14T00:25:44.522Z,209.30
2018-09-14T00:26:19.801Z,210.00
2018-09-14T00:26:55.254Z,210.00
2018-09-14T00:27:30.601Z,210.00
2018-09-14T00:28:06.325Z,210.00
2018-09-14T00:28:41.590Z,210.00
2018-09-14T00:29:16.794Z,210.00
2018-09-14T00:29:52.096Z,210.00
2018-09-14T00:30:27.554Z,210.00
2018-09-14T00:31:02.703Z,210.00
2018-09-14T00:31:37.972Z,210.00
2018-09-14T00:32:13.492Z,210.00
2018-09-14T00:32:51.921Z,210.00
2018-09-14T00:33:27.255Z,210.00
2018-09-14T00:34:02.826Z,210.00
2018-09-14T00:34:38.258Z,210.00
2018-09-14T00:35:13.412Z,210.00
2018-09-14T00:35:48.742Z,210.00
2018-09-14T00:36:24.148Z,210.00
2018-09-14T00:36:59.523Z,210.00
2018-09-14T00:37:34.881Z,210.00
2018-09-14T00:38:10.250Z,210.00
2018-09-14T00:38:45.820Z,210.00
2018-09-14T00:39:21.027Z,210.00
2018-09-14T00:39:56.438Z,210.00
2018-09-14T00:40:31.711Z,210.00
2018-09-14T00:41:07.145Z,210.00
2018-09-14T00:41:42.614Z,210.00
2018-09-14T00:42:18.034Z,210.00
2018-09-14T00:42:53.153Z,210.00
2018-09-14T00:43:28.747Z,210.00
2018-09-14T00:44:03.858Z,210.00
2018-09-14T00:44:39.050Z,210.00
2018-09-14T00:45:14.127Z,210.00
2018-09-14T00:45:49.418Z,210.00
2018-09-14T00:46:25.181Z,228.68
2018-09-14T00:47:00.386Z,255.00
2018-09-14T00:47:35.630Z,255.00
2018-09-14T00:48:10.849Z,255.00
2018-09-14T00:48:46.169Z,255.00
2018-09-14T00:49:21.646Z,255.00
2018-09-14T00:49:57.253Z,255.00
2018-09-14T00:50:32.412Z,255.00
2018-09-14T00:51:07.544Z,255.00
2018-09-14T00:51:43.052Z,255.00
2018-09-14T00:52:18.558Z,255.00
2018-09-14T00:52:53.956Z,255.00
2018-09-14T00:53:29.257Z,255.00
2018-09-14T00:54:04.360Z,255.00
2018-09-14T00:54:39.642Z,255.00
2018-09-14T00:55:14.848Z,255.00
2018-09-14T00:55:50.217Z,255.00
2018-09-14T00:56:25.284Z,255.00
2018-09-14T00:57:00.539Z,255.00
2018-09-14T00:57:35.737Z,255.00
2018-09-14T00:58:10.912Z,255.00
2018-09-14T00:58:46.218Z,255.00
2018-09-14T00:59:21.482Z,255.00
2018-09-14T00:59:56.894Z,255.00
2018-09-14T01:00:32.297Z,255.00
2018-09-14T01:01:07.421Z,255.00
2018-09-14T01:01:42.925Z,255.00
2018-09-14T01:02:18.165Z,255.00
2018-09-14T01:02:53.446Z,255.00
2018-09-14T01:03:28.990Z,255.00
2018-09-14T01:04:04.757Z,255.00
2018-09-14T01:04:40.250Z,255.00
2018-09-14T01:05:15.775Z,255.00
2018-09-14T01:05:50.965Z,255.00
2018-09-14T01:06:26.391Z,255.00
2018-09-14T01:07:01.747Z,255.00
2018-09-14T01:07:37.114Z,255.00
2018-09-14T01:08:12.287Z,255.00
2018-09-14T01:08:47.697Z,255.00
2018-09-14T01:09:22.714Z,255.00
2018-09-14T01:09:58.311Z,255.00
2018-09-14T01:10:33.509Z,255.00
2018-09-14T01:11:09.083Z,255.00
2018-09-14T01:11:44.420Z,255.00
2018-09-14T01:12:19.804Z,255.00
2018-09-14T01:12:55.285Z,255.00
2018-09-14T01:13:30.775Z,255.00
2018-09-14T01:14:06.096Z,255.00
2018-09-14T01:14:41.570Z,255.00
2018-09-14T01:15:17.029Z,255.00
2018-09-14T01:15:52.708Z,255.00
2018-09-14T01:16:28.246Z,255.00
2018-09-14T01:17:03.619Z,255.00
2018-09-14T01:17:39.076Z,255.00
2018-09-14T01:18:14.304Z,255.00
2018-09-14T01:18:49.633Z,255.00
2018-09-14T01:19:24.978Z,255.00
2018-09-14T01:20:00.486Z,255.00
2018-09-14T01:20:36.021Z,255.00
2018-09-14T01:21:11.095Z,255.00
2018-09-14T01:21:46.663Z,255.00
2018-09-14T01:22:22.063Z,255.00
2018-09-14T01:22:57.347Z,255.00
2018-09-14T01:23:32.753Z,255.00
2018-09-14T01:24:08.213Z,255.00
2018-09-14T01:24:43.810Z,255.00
2018-09-14T01:25:19.397Z,255.00
2018-09-14T01:25:54.689Z,255.00
2018-09-14T01:26:30.121Z,255.00
2018-09-14T01:27:05.455Z,255.00
2018-09-14T01:27:40.731Z,79.69
2018-09-14T01:28:16.064Z,75.00
2018-09-14T01:28:51.466Z,75.00
2018-09-14T01:29:26.778Z,75.00
2018-09-14T01:30:01.999Z,75.00
2018-09-14T01:30:37.417Z,75.00
2018-09-14T01:31:12.946Z,75.00
2018-09-14T01:31:48.171Z,75.00
2018-09-14T01:32:23.416Z,75.00
2018-09-14T01:32:58.828Z,75.00
2018-09-14T01:33:34.472Z,75.00
2018-09-14T01:34:09.743Z,75.00
2018-09-14T01:34:44.887Z,75.00
2018-09-14T01:35:20.128Z,75.00
2018-09-14T01:35:55.432Z,75.00
2018-09-14T01:36:30.751Z,75.00
2018-09-14T01:37:06.526Z,75.00
2018-09-14T01:37:41.923Z,75.00
2018-09-14T01:38:17.356Z,75.00
2018-09-14T01:38:52.472Z,75.00
2018-09-14T01:39:27.751Z,75.00
2018-09-14T01:40:03.565Z,75.00
2018-09-14T01:40:39.207Z,75.00
2018-09-14T01:41:14.488Z,75.00
2018-09-14T01:41:49.710Z,75.00
2018-09-14T01:42:25.091Z,75.00
2018-09-14T01:43:00.596Z,75.00
2018-09-14T01:43:35.677Z,75.00
2018-09-14T01:44:11.071Z,75.00
2018-09-14T01:44:46.464Z,75.00
2018-09-14T01:45:21.808Z,160.73
2018-09-14T01:45:57.107Z,210.00
2018-09-14T01:46:32.554Z,210.00
2018-09-14T01:47:07.722Z,210.00
2018-09-14T01:47:42.927Z,210.00
2018-09-14T01:48:18.245Z,210.00
2018-09-14T01:48:53.638Z,210.00
2018-09-14T01:49:28.848Z,210.00
2018-09-14T01:50:04.005Z,210.00
2018-09-14T01:50:39.521Z,210.00
2018-09-14T01:51:14.940Z,210.00
2018-09-14T01:51:50.289Z,210.00
2018-09-14T01:52:25.487Z,210.00
2018-09-14T01:53:01.008Z,210.00
2018-09-14T01:53:36.324Z,210.00
2018-09-14T01:54:11.523Z,210.00
2018-09-14T01:54:46.978Z,210.00
2018-09-14T01:55:22.303Z,210.00
2018-09-14T01:55:57.642Z,210.00
2018-09-14T01:56:32.997Z,210.00
2018-09-14T01:57:08.432Z,210.00
2018-09-14T01:57:43.835Z,210.00
2018-09-14T01:58:19.197Z,210.00
2018-09-14T01:58:54.488Z,210.00
2018-09-14T01:59:29.734Z,210.00
2018-09-14T02:00:05.301Z,210.00
2018-09-14T02:00:40.954Z,210.00
2018-09-14T02:01:16.338Z,210.00
2018-09-14T02:01:51.702Z,210.00
2018-09-14T02:02:27.212Z,210.00
2018-09-14T02:03:02.783Z,210.00
2018-09-14T02:03:38.456Z,210.00
2018-09-14T02:04:13.801Z,210.00
2018-09-14T02:04:49.371Z,210.00
2018-09-14T02:05:24.597Z,210.00
2018-09-14T02:06:00.170Z,210.00
2018-09-14T02:06:35.382Z,210.00
2018-09-14T02:07:10.772Z,210.00
2018-09-14T02:07:46.289Z,210.00
2018-09-14T02:08:21.889Z,210.00
2018-09-14T02:08:57.407Z,210.00
2018-09-14T02:09:32.592Z,210.00
2018-09-14T02:10:07.865Z,210.00
2018-09-14T02:10:43.338Z,210.00
2018-09-14T02:11:18.674Z,210.00
2018-09-14T02:11:54.212Z,210.00
2018-09-14T02:12:29.517Z,210.00
2018-09-14T02:13:04.742Z,210.00
2018-09-14T02:13:40.317Z,210.00
2018-09-14T02:14:15.451Z,210.00
2018-09-14T02:14:50.613Z,210.00
2018-09-14T02:15:25.891Z,210.00
2018-09-14T02:16:01.309Z,210.00
2018-09-14T02:16:36.909Z,210.00
2018-09-14T02:17:12.086Z,210.00
2018-09-14T02:17:47.347Z,210.00
2018-09-14T02:18:22.655Z,210.00
2018-09-14T02:18:57.975Z,210.00
2018-09-14T02:19:33.412Z,210.00
2018-09-14T02:20:09.234Z,210.00
2018-09-14T02:20:44.502Z,210.00
2018-09-14T02:21:19.877Z,210.00
2018-09-14T02:21:55.227Z,210.00
2018-09-14T02:22:30.471Z,210.00
2018-09-14T02:23:05.675Z,210.00
2018-09-14T02:23:41.088Z,210.00
2018-09-14T02:24:16.386Z,210.00
2018-09-14T02:24:51.912Z,210.00
2018-09-14T02:25:27.425Z,210.00
2018-09-14T02:26:02.762Z,210.00
2018-09-14T02:26:38.172Z,210.00
2018-09-14T02:27:13.419Z,210.00
2018-09-14T02:27:48.729Z,210.00
2018-09-14T02:28:23.945Z,210.00
2018-09-14T02:28:59.282Z,210.00
2018-09-14T02:29:34.399Z,210.00
2018-09-14T02:30:09.690Z,210.00
2018-09-14T02:30:45.057Z,210.00
2018-09-14T02:31:20.849Z,210.00
2018-09-14T02:31:55.962Z,210.00
2018-09-14T02:32:31.086Z,210.00
2018-09-14T02:33:06.355Z,210.00
2018-09-14T02:33:41.468Z,210.00
2018-09-14T02:34:16.870Z,210.00
2018-09-14T02:34:52.558Z,210.00
2018-09-14T02:35:28.141Z,210.00
2018-09-14T02:36:03.539Z,210.00
2018-09-14T02:36:38.903Z,210.00
2018-09-14T02:37:14.192Z,210.00
2018-09-14T02:37:49.743Z,210.00
2018-09-14T02:38:25.078Z,210.00
2018-09-14T02:39:00.448Z,210.00
2018-09-14T02:39:35.937Z,210.00
2018-09-14T02:40:11.649Z,210.00
2018-09-14T02:40:47.405Z,210.00
2018-09-14T02:41:22.638Z,210.00
2018-09-14T02:41:57.818Z,210.00
2018-09-14T02:42:32.907Z,210.00
2018-09-14T02:43:08.362Z,210.00
2018-09-14T02:43:43.954Z,210.00
2018-09-14T02:44:19.224Z,210.00
2018-09-14T02:44:54.764Z,210.00
2018-09-14T02:45:30.182Z,210.00
2018-09-14T02:46:05.646Z,210.00
2018-09-14T02:46:41.046Z,210.00
2018-09-14T02:47:16.245Z,210.00
2018-09-14T02:47:51.643Z,210.00
2018-09-14T02:48:27.227Z,210.00
2018-09-14T02:49:02.663Z,210.00
2018-09-14T02:49:38.215Z,210.00
2018-09-14T02:50:13.464Z,210.00
2018-09-14T02:50:48.724Z,210.00
2018-09-14T02:51:24.111Z,210.00
2018-09-14T02:51:59.633Z,210.00
2018-09-14T02:52:35.030Z,210.00
2018-09-14T02:53:10.280Z,210.00
2018-09-14T02:53:45.704Z,210.00
2018-09-14T02:54:20.891Z,210.00
2018-09-14T02:54:56.539Z,210.00
2018-09-14T02:55:31.775Z,210.00
2018-09-14T02:56:07.103Z,210.00
2018-09-14T02:56:42.842Z,210.00
2018-09-14T02:57:18.499Z,210.00
2018-09-14T02:57:53.965Z,210.00
2018-09-14T02:58:29.530Z,210.00
2018-09-14T02:59:05.161Z,210.00
2018-09-14T02:59:40.434Z,189.58
2018-09-14T03:00:15.825Z,75.00
2018-09-14T03:00:51.025Z,75.00
2018-09-14T03:01:26.060Z,75.00
2018-09-14T03:02:01.273Z,75.00
2018-09-14T03:02:36.309Z,75.00
2018-09-14T03:03:11.679Z,75.00
2018-09-14T03:03:47.115Z,75.00
2018-09-14T03:04:22.596Z,75.00
2018-09-14T03:04:58.069Z,75.00
2018-09-14T03:05:33.142Z,75.00
2018-09-14T03:06:08.579Z,75.00
2018-09-14T03:06:44.050Z,75.00
2018-09-14T03:07:19.292Z,75.00
2018-09-14T03:07:54.602Z,75.00
2018-09-14T03:08:30.010Z,75.00
2018-09-14T03:09:05.611Z,75.00
2018-09-14T03:09:41.026Z,75.00
2018-09-14T03:10:16.338Z,75.00
2018-09-14T03:10:51.629Z,75.00
2018-09-14T03:11:26.932Z,75.00
2018-09-14T03:12:02.559Z,75.00
2018-09-14T03:12:38.725Z,75.00
2018-09-14T03:13:13.932Z,75.00
2018-09-14T03:13:49.147Z,75.00
2018-09-14T03:14:24.362Z,75.00
2018-09-14T03:14:59.858Z,75.00
2018-09-14T03:15:35.211Z,75.00
2018-09-14T03:16:10.851Z,75.00
2018-09-14T03:16:46.440Z,75.00
2018-09-14T03:17:21.409Z,75.00
2018-09-14T03:17:56.953Z,75.00
2018-09-14T03:18:32.316Z,75.00
2018-09-14T03:19:07.625Z,75.00
2018-09-14T03:19:43.202Z,75.00
2018-09-14T03:20:18.452Z,75.00
2018-09-14T03:20:53.509Z,75.00
2018-09-14T03:21:28.848Z,75.00
2018-09-14T03:22:04.012Z,75.00
2018-09-14T03:22:39.475Z,75.00
2018-09-14T03:23:14.745Z,75.00
2018-09-14T03:23:50.135Z,75.00
2018-09-14T03:24:25.195Z,75.00
2018-09-14T03:25:00.574Z,75.00
2018-09-14T03:25:36.161Z,75.00
2018-09-14T03:26:11.422Z,75.00
2018-09-14T03:26:46.696Z,75.00
2018-09-14T03:27:22.092Z,75.00
2018-09-14T03:27:57.254Z,75.00
2018-09-14T03:28:32.377Z,75.00
2018-09-14T03:29:07.793Z,75.00
2018-09-14T03:29:42.983Z,75.00
2018-09-14T03:30:18.325Z,75.00
2018-09-14T03:30:53.612Z,75.00
2018-09-14T03:31:28.925Z,75.00
2018-09-14T03:32:04.154Z,75.00
2018-09-14T03:32:39.318Z,75.00
2018-09-14T03:33:14.681Z,75.00
2018-09-14T03:33:50.388Z,75.00
2018-09-14T03:34:25.753Z,75.00
2018-09-14T03:35:00.820Z,75.00
2018-09-14T03:35:36.199Z,75.00
2018-09-14T03:36:11.593Z,75.00
2018-09-14T03:36:46.968Z,75.00
2018-09-14T03:37:22.535Z,75.00
2018-09-14T03:37:58.376Z,75.00
2018-09-14T03:38:33.806Z,75.00
2018-09-14T03:39:09.139Z,75.00
2018-09-14T03:39:44.696Z,75.00
2018-09-14T03:40:20.419Z,75.00
2018-09-14T03:40:55.811Z,75.00
2018-09-14T03:41:31.245Z,75.00
2018-09-14T03:42:06.547Z,75.00
2018-09-14T03:42:41.849Z,75.00
2018-09-14T03:43:17.125Z,75.00
2018-09-14T03:43:52.290Z,75.00
2018-09-14T03:44:27.351Z,75.00
2018-09-14T03:45:02.946Z,75.00
2018-09-14T03:45:38.293Z,75.00
2018-09-14T03:46:13.643Z,75.00
2018-09-14T03:46:49.118Z,75.00
2018-09-14T03:47:24.578Z,75.00
2018-09-14T03:47:59.747Z,75.00
2018-09-14T03:48:35.038Z,75.00
2018-09-14T03:49:10.417Z,75.00
2018-09-14T03:49:45.846Z,75.00
2018-09-14T03:50:21.152Z,75.00
2018-09-14T03:50:56.667Z,75.00
2018-09-14T03:51:31.928Z,75.00
2018-09-14T03:52:07.361Z,75.00
2018-09-14T03:52:42.868Z,75.00
2018-09-14T03:53:18.219Z,75.00
2018-09-14T03:53:53.397Z,75.00
2018-09-14T03:54:28.712Z,75.00
2018-09-14T03:55:03.919Z,75.00
2018-09-14T03:55:39.414Z,75.00
2018-09-14T03:56:15.194Z,75.00
2018-09-14T03:56:50.562Z,75.00
2018-09-14T03:57:25.982Z,75.00
2018-09-14T03:58:01.092Z,75.00
2018-09-14T03:58:36.600Z,75.00
2018-09-14T03:59:12.193Z,75.00
2018-09-14T03:59:47.479Z,75.00
2018-09-14T04:00:22.707Z,75.00
2018-09-14T04:00:58.038Z,75.00
2018-09-14T04:01:33.267Z,75.00
2018-09-14T04:02:08.702Z,75.00
2018-09-14T04:02:44.279Z,75.00
2018-09-14T04:03:19.638Z,75.00
2018-09-14T04:03:55.204Z,75.00
2018-09-14T04:04:30.616Z,75.00
2018-09-14T04:05:06.004Z,75.00
2018-09-14T04:05:41.537Z,75.00
2018-09-14T04:06:16.707Z,75.00
2018-09-14T04:06:51.983Z,75.00
2018-09-14T04:07:27.467Z,75.00
2018-09-14T04:08:02.454Z,75.00
2018-09-14T04:08:37.912Z,75.00
2018-09-14T04:09:13.253Z,75.00
2018-09-14T04:09:48.567Z,75.00
2018-09-14T04:10:23.809Z,75.00
2018-09-14T04:10:58.834Z,75.00
2018-09-14T04:11:34.230Z,75.00
2018-09-14T04:12:09.397Z,75.00
2018-09-14T04:12:45.116Z,75.00
2018-09-14T04:13:20.532Z,75.00
2018-09-14T04:13:55.639Z,75.00
2018-09-14T04:14:30.748Z,75.00
2018-09-14T04:15:06.148Z,75.00
2018-09-14T04:15:41.570Z,75.00
2018-09-14T04:16:16.907Z,75.00
2018-09-14T04:16:52.217Z,75.00
2018-09-14T04:17:27.513Z,75.00
2018-09-14T04:18:02.904Z,75.00
2018-09-14T04:18:38.307Z,75.00
2018-09-14T04:19:13.520Z,75.00
2018-09-14T04:19:48.963Z,75.00
2018-09-14T04:20:24.267Z,75.00
2018-09-14T04:20:59.891Z,75.00
2018-09-14T04:21:35.076Z,75.00
2018-09-14T04:22:10.639Z,75.00
2018-09-14T04:22:46.006Z,75.00
2018-09-14T04:23:21.204Z,75.00
2018-09-14T04:23:56.556Z,75.00
2018-09-14T04:24:31.987Z,75.00
2018-09-14T04:25:07.216Z,75.00
2018-09-14T04:25:42.506Z,75.00
2018-09-14T04:26:18.114Z,75.00
2018-09-14T04:26:53.278Z,75.00
2018-09-14T04:27:28.644Z,75.00
2018-09-14T04:28:04.153Z,75.00
2018-09-14T04:28:39.435Z,75.00
2018-09-14T04:29:14.995Z,75.00
2018-09-14T04:29:50.403Z,75.00
2018-09-14T04:30:25.539Z,75.00
2018-09-14T04:31:00.695Z,75.00
2018-09-14T04:31:35.988Z,75.00
2018-09-14T04:32:11.606Z,75.00
2018-09-14T04:32:47.073Z,75.00
2018-09-14T04:33:22.180Z,75.00
2018-09-14T04:33:57.236Z,75.00
2018-09-14T04:34:32.295Z,75.00
2018-09-14T04:35:07.830Z,75.00
2018-09-14T04:35:42.998Z,75.00
2018-09-14T04:36:18.401Z,75.00
2018-09-14T04:36:53.555Z,75.00
2018-09-14T04:37:28.842Z,75.00
2018-09-14T04:38:04.273Z,75.00
2018-09-14T04:38:39.611Z,75.00
2018-09-14T04:39:15.150Z,75.00
2018-09-14T04:39:50.535Z,75.00
2018-09-14T04:40:25.820Z,75.00
2018-09-14T04:41:01.130Z,75.00
2018-09-14T04:41:36.336Z,75.00
2018-09-14T04:42:11.820Z,75.00
2018-09-14T04:42:47.426Z,75.00
2018-09-14T04:43:22.600Z,75.00
2018-09-14T04:43:57.661Z,75.00
2018-09-14T04:44:32.987Z,75.00
2018-09-14T04:45:08.251Z,75.00
2018-09-14T04:45:43.716Z,75.00
2018-09-14T04:46:18.924Z,75.00
2018-09-14T04:46:54.242Z,75.00
2018-09-14T04:47:29.518Z,75.00
2018-09-14T04:48:04.756Z,75.00
2018-09-14T04:48:40.191Z,75.00
2018-09-14T04:49:15.428Z,75.00
2018-09-14T04:49:50.955Z,75.00
2018-09-14T04:50:26.351Z,75.00
2018-09-14T04:51:01.453Z,75.00
2018-09-14T04:51:36.788Z,75.00
2018-09-14T04:52:12.078Z,75.00
2018-09-14T04:52:47.254Z,75.00
2018-09-14T04:53:22.614Z,75.00
2018-09-14T04:53:58.029Z,75.00
2018-09-14T04:54:33.543Z,75.00
2018-09-14T04:55:08.724Z,75.00
2018-09-14T04:55:44.404Z,75.00
2018-09-14T04:56:19.994Z,75.00
2018-09-14T04:56:55.320Z,75.00
2018-09-14T04:57:30.608Z,75.00
2018-09-14T04:58:05.741Z,75.00
2018-09-14T04:58:41.120Z,75.00
2018-09-14T04:59:16.584Z,75.00
2018-09-14T04:59:51.849Z,75.00
2018-09-14T05:00:27.038Z,75.00
2018-09-14T05:01:02.399Z,75.00
2018-09-14T05:01:37.626Z,75.00
2018-09-14T05:02:13.266Z,75.00
2018-09-14T05:02:48.498Z,75.00
2018-09-14T05:03:23.937Z,75.00
2018-09-14T05:03:59.223Z,75.00
2018-09-14T05:04:34.335Z,75.00
2018-09-14T05:05:09.983Z,75.00
2018-09-14T05:05:45.472Z,75.00
2018-09-14T05:06:21.014Z,75.00
2018-09-14T05:06:56.256Z,75.00
2018-09-14T05:07:31.633Z,75.00
2018-09-14T05:08:07.223Z,115.31
2018-09-14T05:08:42.689Z,102.09
2018-09-14T05:09:18.162Z,93.68
2018-09-14T05:09:53.559Z,75.00
2018-09-14T05:10:28.838Z,75.00
2018-09-14T05:11:04.160Z,75.00
2018-09-14T05:11:39.937Z,75.00
2018-09-14T05:12:15.376Z,222.40
2018-09-14T05:12:50.435Z,211.58
2018-09-14T05:13:25.771Z,211.77
2018-09-14T05:14:00.955Z,116.40
2018-09-14T05:14:36.284Z,210.75
2018-09-14T05:15:11.609Z,324.81
2018-09-14T05:15:46.837Z,30.00
2018-09-14T05:16:22.129Z,247.54
2018-09-14T05:16:57.397Z,245.80
2018-09-14T05:17:32.983Z,247.39
2018-09-14T05:18:08.354Z,165.00
2018-09-14T05:18:43.649Z,191.59
2018-09-14T05:19:19.108Z,152.15
2018-09-14T05:19:54.564Z,75.00
2018-09-14T05:20:29.894Z,75.00
2018-09-14T05:21:05.262Z,75.00
2018-09-14T05:21:40.743Z,84.28
2018-09-14T05:22:15.960Z,210.00
2018-09-14T05:22:51.236Z,210.00
2018-09-14T05:23:26.560Z,210.00
2018-09-14T05:24:01.767Z,210.00
2018-09-14T05:24:37.152Z,345.00
2018-09-14T05:25:12.665Z,289.80
2018-09-14T05:25:47.811Z,274.30
2018-09-14T05:26:23.187Z,195.71
2018-09-14T05:26:58.355Z,145.28
2018-09-14T05:27:33.523Z,244.76
2018-09-14T05:28:09.156Z,73.84
2018-09-14T05:28:44.617Z,75.00
2018-09-14T05:29:19.904Z,75.00
2018-09-14T05:29:55.517Z,201.05
2018-09-14T05:30:31.267Z,210.00
2018-09-14T05:31:06.977Z,215.42
2018-09-14T05:31:42.286Z,218.26
2018-09-14T05:32:17.765Z,228.04
2018-09-14T05:32:53.443Z,240.84
2018-09-14T05:33:28.759Z,220.69
2018-09-14T05:34:04.548Z,210.00
2018-09-14T05:34:40.079Z,253.68
2018-09-14T05:35:15.235Z,64.05
2018-09-14T05:35:50.549Z,84.01
2018-09-14T05:36:25.805Z,179.22
2018-09-14T05:37:01.014Z,238.39
2018-09-14T05:37:36.513Z,245.30
2018-09-14T05:38:12.145Z,250.25
2018-09-14T05:38:47.431Z,245.84
2018-09-14T05:39:22.865Z,259.78
2018-09-14T05:39:58.276Z,271.42
2018-09-14T05:40:33.242Z,248.86
2018-09-14T05:41:08.516Z,243.06
2018-09-14T05:41:43.706Z,223.43
2018-09-14T05:42:19.218Z,242.74
2018-09-14T05:42:54.915Z,235.57
2018-09-14T05:43:30.541Z,187.48
2018-09-14T05:44:05.707Z,218.09
2018-09-14T05:44:40.914Z,220.78
2018-09-14T05:45:16.258Z,214.59
2018-09-14T05:45:51.459Z,187.48
2018-09-14T05:46:26.800Z,210.00
2018-09-14T05:47:02.083Z,210.00
2018-09-14T05:47:37.663Z,232.52
2018-09-14T05:48:13.101Z,225.64
2018-09-14T05:48:48.173Z,210.00
2018-09-14T05:49:23.529Z,247.44
2018-09-14T05:49:58.999Z,255.00
2018-09-14T05:50:34.212Z,349.24
2018-09-14T05:51:09.664Z,51.51
2018-09-14T05:51:45.045Z,268.04
2018-09-14T05:52:20.218Z,76.37
2018-09-14T05:52:55.703Z,105.88
2018-09-14T05:53:31.144Z,101.32
2018-09-14T05:54:06.459Z,48.76
2018-09-14T05:54:41.779Z,128.84
2018-09-14T05:55:16.914Z,153.28
2018-09-14T05:55:52.307Z,95.00
2018-09-14T05:56:27.851Z,120.00
2018-09-14T05:57:03.257Z,22.20
2018-09-14T05:57:38.802Z,132.47
2018-09-14T05:58:14.328Z,189.80
2018-09-14T05:58:50.007Z,210.00
2018-09-14T05:59:25.207Z,170.85
2018-09-14T06:00:00.819Z,75.72
2018-09-14T06:00:36.310Z,75.00
2018-09-14T06:01:11.520Z,75.00
2018-09-14T06:01:46.730Z,96.74
2018-09-14T06:02:22.276Z,210.00
2018-09-14T06:02:57.599Z,63.43
2018-09-14T06:03:33.054Z,75.00
2018-09-14T06:04:08.405Z,96.05
2018-09-14T06:04:43.900Z,253.70
2018-09-14T06:05:19.017Z,31.38
2018-09-14T06:05:54.289Z,232.71
2018-09-14T06:06:29.725Z,243.83
2018-09-14T06:07:05.174Z,211.32
2018-09-14T06:07:40.545Z,246.01
2018-09-14T06:08:15.929Z,214.50
2018-09-14T06:08:51.271Z,233.33
2018-09-14T06:09:26.596Z,210.00
2018-09-14T06:10:01.987Z,227.53
2018-09-14T06:10:37.223Z,245.20
2018-09-14T06:11:12.394Z,220.48
2018-09-14T06:11:47.844Z,237.87
2018-09-14T06:12:23.166Z,237.10
2018-09-14T06:12:58.401Z,233.33
2018-09-14T06:13:33.712Z,222.81
2018-09-14T06:14:09.696Z,233.49
2018-09-14T06:14:45.237Z,158.00
2018-09-14T06:15:20.688Z,240.84
2018-09-14T06:15:55.906Z,198.30
2018-09-14T06:16:31.211Z,156.60
2018-09-14T06:17:06.618Z,165.00
2018-09-14T06:17:42.023Z,236.28
2018-09-14T06:18:17.333Z,219.03
2018-09-14T06:18:52.779Z,226.99
2018-09-14T06:19:28.567Z,212.11
2018-09-14T06:20:03.812Z,228.79
2018-09-14T06:20:39.189Z,227.16
2018-09-14T06:21:14.688Z,216.94
2018-09-14T06:21:50.056Z,228.73
2018-09-14T06:22:25.163Z,230.25
2018-09-14T06:23:00.532Z,217.91
2018-09-14T06:23:35.743Z,230.25
2018-09-14T06:24:10.854Z,242.35
2018-09-14T06:24:46.438Z,219.03
2018-09-14T06:25:22.061Z,210.00
2018-09-14T06:25:57.571Z,236.32
2018-09-14T06:26:32.939Z,234.13
2018-09-14T06:27:08.460Z,227.95
2018-09-14T06:27:43.679Z,210.00
2018-09-14T06:28:19.177Z,214.03
2018-09-14T06:28:54.554Z,210.00
2018-09-14T06:29:29.775Z,210.00
2018-09-14T06:30:05.415Z,210.00
2018-09-14T06:30:41.085Z,210.00
2018-09-14T06:31:16.574Z,82.28
2018-09-14T06:31:51.885Z,208.40
2018-09-14T06:32:27.152Z,72.97
2018-09-14T06:33:02.769Z,18.51
2018-09-14T06:33:38.145Z,226.14
2018-09-14T06:34:13.543Z,47.01
2018-09-14T06:34:48.907Z,82.23
2018-09-14T06:35:24.171Z,209.08
2018-09-14T06:35:59.491Z,52.98
2018-09-14T06:36:34.748Z,72.91
2018-09-14T06:37:09.958Z,36.67
2018-09-14T06:37:45.506Z,52.43
2018-09-14T06:38:20.759Z,62.35
2018-09-14T06:38:55.850Z,75.00
2018-09-14T06:39:31.028Z,98.51
2018-09-14T06:40:06.393Z,206.20
2018-09-14T06:40:41.697Z,246.80
2018-09-14T06:41:17.152Z,16.62
2018-09-14T06:41:52.588Z,168.42
2018-09-14T06:42:28.337Z,211.32
2018-09-14T06:43:03.722Z,245.63
2018-09-14T06:43:39.020Z,250.97
2018-09-14T06:44:14.590Z,205.81
2018-09-14T06:44:49.929Z,240.11
2018-09-14T06:45:25.246Z,227.95
2018-09-14T06:46:00.808Z,216.03
2018-09-14T06:46:36.116Z,216.74
2018-09-14T06:47:11.511Z,228.60
2018-09-14T06:47:47.051Z,162.56
2018-09-14T06:48:22.369Z,206.97
2018-09-14T06:48:57.863Z,224.06
2018-09-14T06:49:33.311Z,211.47
2018-09-14T06:50:08.599Z,226.43
2018-09-14T06:50:44.033Z,223.25
2018-09-14T06:51:19.478Z,221.32
2018-09-14T06:51:54.699Z,207.40
2018-09-14T06:52:30.448Z,230.99
2018-09-14T06:53:05.644Z,227.64
2018-09-14T06:53:40.999Z,296.36
2018-09-14T06:54:16.644Z,343.86
2018-09-14T06:54:52.071Z,226.50
2018-09-14T06:55:27.349Z,225.21
2018-09-14T06:56:02.782Z,231.30
2018-09-14T06:56:38.434Z,247.65
2018-09-14T06:57:13.746Z,249.40
2018-09-14T06:57:49.185Z,241.21
2018-09-14T06:58:24.539Z,213.45
2018-09-14T06:58:59.994Z,240.84
2018-09-14T06:59:35.637Z,216.00
2018-09-14T07:00:11.076Z,31.42
2018-09-14T07:00:46.613Z,216.75
2018-09-14T07:01:22.036Z,211.80
2018-09-14T07:01:57.394Z,275.40
2018-09-14T07:02:32.732Z,161.28
2018-09-14T07:03:08.319Z,242.40
2018-09-14T07:03:43.940Z,247.54
2018-09-14T07:04:19.158Z,34.94
2018-09-14T07:04:54.583Z,34.80
2018-09-14T07:05:29.996Z,229.60
2018-09-14T07:06:05.632Z,161.39
2018-09-14T07:06:41.026Z,13.79
2018-09-14T07:07:16.617Z,281.98
2018-09-14T07:07:52.238Z,54.64
2018-09-14T07:08:27.683Z,18.81
2018-09-14T07:09:02.998Z,46.00
2018-09-14T07:09:38.219Z,210.67
2018-09-14T07:10:13.622Z,220.10
2018-09-14T07:10:49.040Z,207.25
2018-09-14T07:11:24.385Z,212.92
2018-09-14T07:11:59.686Z,213.44
2018-09-14T07:12:35.045Z,222.04
2018-09-14T07:13:10.581Z,233.20
2018-09-14T07:13:45.802Z,242.34
2018-09-14T07:14:21.225Z,217.88
2018-09-14T07:14:56.579Z,187.69
2018-09-14T07:15:31.873Z,213.65
2018-09-14T07:16:07.283Z,210.84
2018-09-14T07:16:42.891Z,206.65
2018-09-14T07:17:18.233Z,10.30
2018-09-14T07:17:53.607Z,292.29
2018-09-14T07:18:29.057Z,227.47
2018-09-14T07:19:04.555Z,242.87
2018-09-14T07:19:40.283Z,222.12
2018-09-14T07:20:15.531Z,246.73
2018-09-14T07:20:51.213Z,226.52
2018-09-14T07:21:26.945Z,206.72
2018-09-14T07:22:02.327Z,224.14
2018-09-14T07:22:37.622Z,243.81
2018-09-14T07:23:13.180Z,218.42
2018-09-14T07:23:48.707Z,224.93
2018-09-14T07:24:24.133Z,217.75
2018-09-14T07:24:59.721Z,51.44
2018-09-14T07:25:34.927Z,196.24
2018-09-14T07:26:10.023Z,3.36
2018-09-14T07:26:45.389Z,262.79